Time;durP1;ratioP1;P1;durP2;ratioP2;P2;SDS_P1;SDS_P2;PMS_P1;PMS_P2;Temp;Humidity;BMP_temperature;BMP_pressure;BME280_temperature;BME280_humidity;BME280_pressure;Samples;Min_cycle;Max_cycle;Signal;HPM_P1;HPM_P2
2024/03/03 00:02:12;;;;;;;1.67;1.30;;;12.60;99.90;;;;;;5033378;28;20025;-79
2024/03/03 00:04:38;;;;;;;5.00;1.80;;;12.70;99.90;;;;;;5033364;28;20029;-80
2024/03/03 00:07:03;;;;;;;2.08;1.50;;;12.60;99.90;;;;;;5033450;28;20567;-79
2024/03/03 00:09:29;;;;;;;1.95;1.85;;;12.60;99.90;;;;;;5033327;28;20514;-79
2024/03/03 00:11:55;;;;;;;2.45;1.58;;;12.60;99.90;;;;;;5033325;28;20029;-80
2024/03/03 00:14:21;;;;;;;4.75;1.80;;;12.50;99.90;;;;;;5033471;28;20018;-79
2024/03/03 00:16:47;;;;;;;2.92;1.63;;;12.50;99.90;;;;;;5032677;28;20478;-79
2024/03/03 00:19:13;;;;;;;1.67;1.58;;;12.50;99.90;;;;;;5032755;28;20032;-79
2024/03/03 00:21:39;;;;;;;2.38;1.90;;;12.60;99.90;;;;;;5033039;28;20033;-79
2024/03/03 00:24:05;;;;;;;1.90;1.40;;;12.60;99.90;;;;;;5015275;28;20492;-79
2024/03/03 00:26:33;;;;;;;2.38;1.83;;;12.50;99.90;;;;;;5032674;28;20036;-79
2024/03/03 00:29:00;;;;;;;4.22;1.85;;;12.50;99.90;;;;;;5014912;28;20071;-80
2024/03/03 00:31:26;;;;;;;2.38;1.60;;;12.50;99.90;;;;;;5032982;28;20037;-79
2024/03/03 00:33:53;;;;;;;4.15;1.70;;;12.50;99.90;;;;;;5014375;28;20128;-80
2024/03/03 00:36:19;;;;;;;2.53;1.90;;;12.50;99.90;;;;;;5032408;28;20168;-79
2024/03/03 00:38:45;;;;;;;2.67;1.85;;;12.50;99.90;;;;;;5032598;28;20021;-79
2024/03/03 00:41:11;;;;;;;2.85;2.15;;;12.50;99.90;;;;;;5014890;28;20040;-79
2024/03/03 00:43:37;;;;;;;2.03;1.73;;;12.50;99.90;;;;;;5032747;28;20028;-79
2024/03/03 00:46:05;;;;;;;1.85;1.70;;;12.50;99.90;;;;;;5032169;28;20034;-79
2024/03/03 00:48:30;;;;;;;2.00;1.80;;;12.50;99.90;;;;;;5032579;28;20022;-79
2024/03/03 00:50:56;;;;;;;2.15;1.67;;;12.50;99.90;;;;;;5032480;28;20105;-80
2024/03/03 00:53:22;;;;;;;2.13;1.48;;;12.40;99.90;;;;;;5032761;28;20021;-80
2024/03/03 00:55:49;;;;;;;1.70;1.50;;;12.30;99.90;;;;;;5032618;28;20061;-79
2024/03/03 00:58:15;;;;;;;2.78;1.45;;;12.20;99.90;;;;;;5032212;28;20039;-79
2024/03/03 01:00:42;;;;;;;2.50;1.65;;;12.20;99.90;;;;;;5032402;28;20021;-80
2024/03/03 01:03:08;;;;;;;3.75;1.10;;;12.30;99.90;;;;;;5032177;28;20029;-80
2024/03/03 01:05:34;;;;;;;1.83;1.70;;;12.20;99.90;;;;;;5032085;28;20026;-80
2024/03/03 01:07:59;;;;;;;3.17;1.30;;;12.20;99.90;;;;;;5032198;28;20359;-79
2024/03/03 01:10:25;;;;;;;1.50;1.30;;;12.20;99.90;;;;;;5032186;28;20036;-80
2024/03/03 01:12:51;;;;;;;1.70;1.40;;;12.10;99.90;;;;;;5032229;28;20381;-80
2024/03/03 01:15:17;;;;;;;1.85;1.40;;;12.10;99.90;;;;;;5032303;28;20026;-80
2024/03/03 01:17:43;;;;;;;3.58;1.83;;;12.00;99.90;;;;;;5031678;28;20030;-80
2024/03/03 01:20:09;;;;;;;4.70;1.85;;;12.00;99.90;;;;;;5032059;28;20029;-80
2024/03/03 01:22:36;;;;;;;2.95;1.90;;;11.90;99.90;;;;;;5031871;28;20033;-79
2024/03/03 01:25:02;;;;;;;3.17;1.63;;;11.90;99.90;;;;;;5031961;28;20040;-79
2024/03/03 01:27:28;;;;;;;3.95;1.73;;;11.90;99.90;;;;;;5031737;28;20021;-79
2024/03/03 01:29:54;;;;;;;2.10;1.42;;;12.00;99.90;;;;;;5014064;28;20040;-78
2024/03/03 01:32:22;;;;;;;1.75;1.65;;;11.90;99.90;;;;;;5031625;28;20025;-79
2024/03/03 01:34:48;;;;;;;2.15;1.63;;;12.00;99.90;;;;;;5032462;28;20068;-78
2024/03/03 01:37:14;;;;;;;2.33;1.73;;;11.90;99.90;;;;;;5031548;28;20145;-78
2024/03/03 01:39:42;;;;;;;2.13;1.50;;;11.90;99.90;;;;;;5031840;28;20100;-78
2024/03/03 01:42:08;;;;;;;2.15;1.60;;;11.90;99.90;;;;;;5031935;28;20025;-78
2024/03/03 01:44:34;;;;;;;2.20;1.77;;;12.00;99.90;;;;;;5031834;28;20030;-78
2024/03/03 01:47:00;;;;;;;1.77;1.55;;;12.00;99.90;;;;;;5029854;28;20021;-79
2024/03/03 01:49:28;;;;;;;3.65;2.10;;;11.90;99.90;;;;;;5031697;28;20029;-78
2024/03/03 01:51:54;;;;;;;3.05;2.28;;;11.80;99.90;;;;;;5031690;28;20017;-78
2024/03/03 01:54:20;;;;;;;3.10;2.25;;;11.80;99.90;;;;;;5031969;28;20404;-78
2024/03/03 01:56:48;;;;;;;5.32;2.15;;;11.80;99.90;;;;;;5030860;28;20037;-78
2024/03/03 01:59:16;;;;;;;2.75;2.00;;;11.80;99.90;;;;;;5031494;28;20782;-78
2024/03/03 02:01:43;;;;;;;2.20;1.75;;;11.70;99.90;;;;;;5031083;28;20032;-78
2024/03/03 02:04:11;;;;;;;3.38;1.90;;;11.70;99.90;;;;;;5031669;28;20067;-78
2024/03/03 02:06:40;;;;;;;2.95;2.40;;;11.70;99.90;;;;;;5031201;28;20034;-78
2024/03/03 02:09:06;;;;;;;5.53;2.40;;;11.80;99.90;;;;;;5031636;28;20176;-78
2024/03/03 02:11:33;;;;;;;4.25;2.40;;;11.70;99.90;;;;;;5031426;28;20025;-78
2024/03/03 02:13:59;;;;;;;3.63;2.58;;;11.70;99.90;;;;;;5031754;28;20064;-79
2024/03/03 02:16:25;;;;;;;3.95;2.47;;;11.70;99.90;;;;;;5030991;28;20047;-79
2024/03/03 02:18:51;;;;;;;5.68;2.58;;;11.70;99.90;;;;;;5031649;28;20518;-79
2024/03/03 02:21:25;;;;;;;3.33;2.05;;;11.70;99.90;;;;;;5030990;28;20021;-78
2024/03/03 02:23:51;;;;;;;2.97;2.22;;;11.70;99.90;;;;;;5031459;28;20030;-78
2024/03/03 02:26:20;;;;;;;4.05;2.65;;;11.60;99.90;;;;;;5031339;28;20090;-78
2024/03/03 02:28:46;;;;;;;2.72;2.10;;;11.50;99.90;;;;;;5031102;28;20121;-79
2024/03/03 02:31:12;;;;;;;3.03;2.70;;;11.60;99.90;;;;;;5012963;28;20176;-78
2024/03/03 02:33:37;;;;;;;7.80;2.92;;;11.60;99.90;;;;;;5031122;28;20043;-78
2024/03/03 02:36:03;;;;;;;4.47;2.67;;;11.60;99.90;;;;;;5031279;28;20029;-78
2024/03/03 02:38:29;;;;;;;2.58;2.30;;;11.60;99.90;;;;;;5030995;28;20025;-79
2024/03/03 02:40:55;;;;;;;6.25;2.30;;;11.70;99.90;;;;;;5031587;28;20470;-78
2024/03/03 02:43:20;;;;;;;4.35;2.80;;;11.60;99.90;;;;;;5031310;28;20477;-79
2024/03/03 02:45:46;;;;;;;4.35;2.95;;;11.60;99.90;;;;;;5030946;28;20025;-79
2024/03/03 02:48:11;;;;;;;4.97;2.45;;;11.50;99.90;;;;;;5030855;28;20351;-78
2024/03/03 02:50:37;;;;;;;6.20;3.30;;;11.50;99.90;;;;;;5031292;28;20540;-79
2024/03/03 02:53:03;;;;;;;5.32;2.75;;;11.50;99.90;;;;;;5031132;28;20448;-79
2024/03/03 02:55:29;;;;;;;3.67;3.05;;;11.50;99.90;;;;;;5031705;28;20457;-78
2024/03/03 02:57:54;;;;;;;4.88;2.85;;;11.50;99.90;;;;;;5031878;28;20044;-78
2024/03/03 03:00:20;;;;;;;3.38;2.90;;;11.60;99.90;;;;;;5034750;28;20032;-78
2024/03/03 03:02:46;;;;;;;4.18;3.50;;;11.60;99.90;;;;;;5034824;28;20030;-78
2024/03/03 03:05:11;;;;;;;3.85;3.42;;;11.70;99.90;;;;;;5034804;28;20034;-79
2024/03/03 03:07:37;;;;;;;6.70;4.00;;;11.60;99.90;;;;;;5034746;28;20406;-78
2024/03/03 03:10:03;;;;;;;5.28;3.47;;;11.70;99.90;;;;;;5035042;28;20065;-78
2024/03/03 03:12:28;;;;;;;3.45;3.13;;;11.60;99.90;;;;;;5034705;28;20024;-79
2024/03/03 03:14:54;;;;;;;4.03;2.85;;;11.40;99.90;;;;;;5034683;28;20041;-78
2024/03/03 03:17:20;;;;;;;6.20;4.07;;;11.40;99.90;;;;;;5034122;28;20120;-78
2024/03/03 03:19:45;;;;;;;6.03;3.60;;;11.40;99.90;;;;;;5033793;28;20509;-78
2024/03/03 03:22:12;;;;;;;5.13;3.50;;;11.40;99.90;;;;;;5028836;28;20478;-78
2024/03/03 03:24:37;;;;;;;5.93;3.75;;;11.40;99.90;;;;;;5034831;28;20552;-78
2024/03/03 03:27:04;;;;;;;3.60;3.30;;;11.30;99.90;;;;;;5034551;28;20029;-78
2024/03/03 03:29:30;;;;;;;5.18;3.17;;;11.40;99.90;;;;;;5034563;28;20017;-78
2024/03/03 03:31:55;;;;;;;5.18;3.38;;;11.30;99.90;;;;;;5034319;28;20474;-79
2024/03/03 03:34:21;;;;;;;6.55;3.72;;;11.30;99.90;;;;;;5033755;28;20022;-79
2024/03/03 03:36:47;;;;;;;6.07;3.67;;;11.20;99.90;;;;;;5034257;28;20041;-78
2024/03/03 03:39:12;;;;;;;6.68;3.70;;;11.10;99.90;;;;;;5034263;28;20024;-79
2024/03/03 03:41:46;;;;;;;4.60;3.80;;;11.00;99.90;;;;;;5034099;28;20462;-78
2024/03/03 03:44:12;;;;;;;10.15;4.72;;;11.00;99.90;;;;;;5034357;28;20083;-79
2024/03/03 03:46:37;;;;;;;4.30;3.55;;;11.00;99.90;;;;;;5033952;28;20029;-79
2024/03/03 03:49:07;;;;;;;5.68;4.00;;;10.90;99.90;;;;;;5033473;28;20017;-79
2024/03/03 03:51:32;;;;;;;6.68;4.72;;;10.80;99.90;;;;;;5034471;28;20017;-78
2024/03/03 03:53:58;;;;;;;5.97;4.18;;;10.80;99.90;;;;;;5034129;28;20500;-78
2024/03/03 03:56:24;;;;;;;6.82;4.53;;;10.80;99.90;;;;;;5033717;28;20532;-78
2024/03/03 03:58:49;;;;;;;6.10;5.07;;;10.70;99.90;;;;;;5034184;28;20482;-78
2024/03/03 04:01:19;;;;;;;7.97;4.53;;;10.70;99.90;;;;;;5033787;28;20072;-78
2024/03/03 04:03:45;;;;;;;5.22;4.68;;;10.70;99.90;;;;;;5034377;28;20101;-78
2024/03/03 04:06:11;;;;;;;6.50;5.13;;;10.70;99.90;;;;;;5034091;28;20034;-78
2024/03/03 04:08:37;;;;;;;6.13;4.97;;;10.70;99.90;;;;;;5015974;28;20101;-78
2024/03/03 04:11:03;;;;;;;6.15;4.82;;;10.70;99.90;;;;;;5033127;28;20435;-79
2024/03/03 04:13:29;;;;;;;6.00;5.15;;;10.70;99.90;;;;;;5033756;28;20104;-78
2024/03/03 04:15:54;;;;;;;5.28;4.38;;;10.80;99.90;;;;;;5033617;28;20104;-80
2024/03/03 04:18:20;;;;;;;10.50;5.25;;;10.80;99.90;;;;;;5033760;28;20044;-79
2024/03/03 04:20:46;;;;;;;8.00;4.60;;;10.80;99.90;;;;;;5033888;28;20025;-79
2024/03/03 04:23:11;;;;;;;6.53;4.38;;;10.90;99.90;;;;;;5033647;28;20040;-78
2024/03/03 04:25:37;;;;;;;5.65;4.38;;;11.00;99.90;;;;;;5033363;28;20035;-78
2024/03/03 04:28:03;;;;;;;10.68;5.75;;;10.90;99.90;;;;;;5015609;28;20013;-79
2024/03/03 04:30:29;;;;;;;6.53;4.50;;;10.80;99.90;;;;;;5033463;28;20107;-79
2024/03/03 04:32:54;;;;;;;7.22;5.53;;;10.80;99.90;;;;;;5033468;28;20490;-78
2024/03/03 04:35:20;;;;;;;7.68;5.57;;;10.80;99.90;;;;;;5033207;28;20033;-78
2024/03/03 04:37:46;;;;;;;6.60;5.78;;;10.80;99.90;;;;;;5033365;28;20509;-78
2024/03/03 04:40:11;;;;;;;7.50;5.28;;;10.80;99.90;;;;;;5032990;28;20514;-79
2024/03/03 04:42:37;;;;;;;7.40;5.65;;;10.80;99.90;;;;;;5033569;28;20505;-78
2024/03/03 04:45:06;;;;;;;8.68;5.38;;;10.90;99.90;;;;;;5033347;28;20029;-79
2024/03/03 04:47:31;;;;;;;7.20;5.43;;;10.90;99.90;;;;;;5033451;28;20100;-78
2024/03/03 04:49:57;;;;;;;10.60;6.15;;;10.90;99.90;;;;;;5033155;28;20155;-78
2024/03/03 04:52:23;;;;;;;8.98;5.40;;;10.90;99.90;;;;;;5033338;28;20448;-78
2024/03/03 04:54:48;;;;;;;11.20;5.80;;;10.90;99.90;;;;;;5032973;28;20025;-78
2024/03/03 04:57:14;;;;;;;8.65;5.60;;;10.90;99.90;;;;;;5014968;28;20037;-79
2024/03/03 04:59:40;;;;;;;9.02;5.75;;;10.90;99.90;;;;;;5015363;28;20021;-78
2024/03/03 05:02:05;;;;;;;10.90;6.13;;;10.90;99.90;;;;;;5033056;28;20021;-78
2024/03/03 05:04:31;;;;;;;8.65;5.97;;;10.90;99.90;;;;;;5033176;28;20480;-82
2024/03/03 05:06:57;;;;;;;10.60;5.68;;;11.00;99.90;;;;;;5032595;28;20026;-79
2024/03/03 05:09:22;;;;;;;8.45;4.90;;;11.00;99.90;;;;;;5032189;28;20029;-79
2024/03/03 05:11:48;;;;;;;7.38;4.93;;;11.00;99.90;;;;;;5033229;28;20030;-80
2024/03/03 05:14:14;;;;;;;7.88;4.97;;;11.00;99.90;;;;;;5032949;28;20024;-80
2024/03/03 05:16:40;;;;;;;6.93;5.30;;;11.00;99.90;;;;;;5032561;28;20428;-80
2024/03/03 05:19:08;;;;;;;7.95;5.85;;;11.00;99.90;;;;;;5032742;28;20044;-80
2024/03/03 05:21:35;;;;;;;9.35;6.72;;;11.00;99.90;;;;;;5032474;28;20021;-80
2024/03/03 05:24:01;;;;;;;11.95;7.43;;;11.00;99.90;;;;;;5032324;28;20025;-80
2024/03/03 05:26:26;;;;;;;9.35;6.60;;;10.90;99.90;;;;;;5032436;28;20485;-79
2024/03/03 05:28:52;;;;;;;10.25;7.07;;;10.90;99.90;;;;;;5032466;28;20032;-80
2024/03/03 05:31:18;;;;;;;9.82;6.45;;;10.90;99.90;;;;;;5032317;28;20022;-79
2024/03/03 05:33:44;;;;;;;9.20;6.10;;;10.90;99.90;;;;;;5032619;28;20108;-79
2024/03/03 05:36:11;;;;;;;10.55;6.07;;;10.90;99.90;;;;;;5032183;28;20034;-79
2024/03/03 05:38:39;;;;;;;10.50;7.88;;;10.90;99.90;;;;;;5032041;28;20030;-78
2024/03/03 05:41:05;;;;;;;9.90;6.95;;;10.80;99.90;;;;;;5032504;28;20079;-79
2024/03/03 05:43:31;;;;;;;11.35;7.55;;;10.80;99.90;;;;;;5032414;28;20029;-80
2024/03/03 05:45:56;;;;;;;11.93;7.93;;;10.90;99.90;;;;;;5032085;28;20104;-80
2024/03/03 05:48:22;;;;;;;12.57;8.38;;;11.00;99.90;;;;;;5032216;28;20422;-80
2024/03/03 05:50:48;;;;;;;8.93;6.72;;;10.90;99.90;;;;;;5032311;28;20021;-79
2024/03/03 05:53:13;;;;;;;12.52;7.28;;;10.90;99.90;;;;;;5032196;28;20095;-79
2024/03/03 05:55:39;;;;;;;9.80;7.10;;;10.90;99.90;;;;;;5032273;28;20018;-80
2024/03/03 05:58:05;;;;;;;12.65;8.15;;;11.10;99.90;;;;;;5031467;28;20490;-79
2024/03/03 06:00:30;;;;;;;11.80;8.35;;;11.10;99.90;;;;;;5030830;28;20064;-79
2024/03/03 06:02:57;;;;;;;15.52;7.88;;;11.00;99.90;;;;;;5032092;28;20033;-79
2024/03/03 06:05:22;;;;;;;10.77;7.93;;;11.00;99.90;;;;;;5031600;28;20363;-79
2024/03/03 06:07:48;;;;;;;14.85;7.85;;;11.00;99.90;;;;;;5032132;28;20064;-79
2024/03/03 06:10:14;;;;;;;10.70;6.30;;;11.00;99.90;;;;;;5032164;28;20017;-79
2024/03/03 06:12:39;;;;;;;11.93;8.05;;;11.00;99.90;;;;;;5032059;28;20489;-79
2024/03/03 06:15:05;;;;;;;12.93;8.82;;;11.10;99.90;;;;;;5032093;28;20376;-79
2024/03/03 06:17:31;;;;;;;14.10;8.68;;;11.00;99.90;;;;;;5031779;28;20052;-79
2024/03/03 06:19:57;;;;;;;13.50;9.52;;;11.10;99.90;;;;;;5031933;28;20471;-79
2024/03/03 06:22:22;;;;;;;14.52;8.68;;;11.10;99.90;;;;;;5031497;28;20029;-80
2024/03/03 06:24:48;;;;;;;9.75;7.60;;;11.10;99.90;;;;;;5014443;28;20462;-79
2024/03/03 06:27:14;;;;;;;10.35;7.50;;;11.10;99.90;;;;;;5031555;28;20030;-80
2024/03/03 06:29:39;;;;;;;12.15;7.88;;;11.20;99.90;;;;;;5031639;28;20048;-80
2024/03/03 06:32:05;;;;;;;15.15;8.82;;;11.20;99.90;;;;;;5031852;28;20418;-79
2024/03/03 06:34:31;;;;;;;10.77;7.00;;;11.20;99.90;;;;;;5035495;28;20492;-80
2024/03/03 06:36:56;;;;;;;12.80;8.52;;;11.10;99.90;;;;;;5035299;28;20524;-79
2024/03/03 06:39:22;;;;;;;13.00;8.30;;;11.00;99.90;;;;;;5035777;28;20465;-79
2024/03/03 06:41:47;;;;;;;11.73;8.63;;;11.10;99.90;;;;;;5035505;28;20497;-77
2024/03/03 06:44:16;;;;;;;13.95;9.32;;;11.10;99.90;;;;;;5035788;28;20469;-79
2024/03/03 06:46:44;;;;;;;14.98;8.98;;;11.20;99.90;;;;;;5017680;28;20116;-80
2024/03/03 06:49:11;;;;;;;12.48;9.00;;;11.20;99.90;;;;;;5035696;28;20593;-79
2024/03/03 06:51:37;;;;;;;17.52;9.38;;;11.30;99.90;;;;;;5034990;28;20021;-80
2024/03/03 06:54:04;;;;;;;12.60;9.23;;;11.30;99.90;;;;;;5035604;28;20120;-80
2024/03/03 06:56:30;;;;;;;11.50;8.18;;;11.20;99.90;;;;;;5016115;28;20105;-80
2024/03/03 06:58:55;;;;;;;11.45;8.05;;;11.30;99.90;;;;;;5017390;28;20125;-80
2024/03/03 07:01:21;;;;;;;16.83;8.95;;;11.20;99.90;;;;;;5034964;28;20053;-80
2024/03/03 07:06:33;;;;;;;21.30;9.30;;;11.30;99.90;;;;;;5027295;28;20116;-79
2024/03/03 07:09:00;;;;;;;13.60;9.55;;;11.30;99.90;;;;;;5027760;28;20061;-80
2024/03/03 07:11:26;;;;;;;13.73;8.13;;;11.30;99.90;;;;;;5034474;28;20021;-80
2024/03/03 07:13:51;;;;;;;12.95;8.38;;;11.00;99.90;;;;;;5034573;28;20382;-80
2024/03/03 07:16:18;;;;;;;16.20;10.05;;;11.20;99.90;;;;;;5027955;28;20038;-79
2024/03/03 07:18:44;;;;;;;17.98;10.50;;;11.20;99.90;;;;;;5034631;28;20021;-79
2024/03/03 07:21:10;;;;;;;17.27;11.38;;;11.30;99.90;;;;;;5034487;28;20551;-80
2024/03/03 07:23:36;;;;;;;18.27;11.10;;;11.40;99.90;;;;;;5034352;28;20060;-80
2024/03/03 07:26:01;;;;;;;17.70;11.38;;;11.50;99.90;;;;;;5034083;28;20033;-80
2024/03/03 07:28:27;;;;;;;20.90;11.43;;;11.50;99.90;;;;;;5031542;28;20024;-82
2024/03/03 07:30:53;;;;;;;21.58;12.73;;;11.60;99.90;;;;;;5029487;28;20041;-81
2024/03/03 07:33:18;;;;;;;15.57;10.82;;;11.60;99.90;;;;;;5034085;28;20104;-79
2024/03/03 07:35:44;;;;;;;19.45;12.23;;;11.60;99.90;;;;;;5026073;28;20037;-80
2024/03/03 07:38:10;;;;;;;19.05;12.57;;;11.40;99.90;;;;;;5033210;28;20246;-81
2024/03/03 07:40:37;;;;;;;20.00;13.23;;;11.20;99.90;;;;;;5034216;28;20029;-79
2024/03/03 07:43:05;;;;;;;18.52;11.30;;;11.00;99.90;;;;;;5034344;28;20025;-79
2024/03/03 07:45:32;;;;;;;18.25;11.45;;;11.00;99.90;;;;;;5013581;28;20026;-79
2024/03/03 07:47:57;;;;;;;21.05;11.40;;;11.10;99.90;;;;;;5028913;28;20105;-81
2024/03/03 07:50:23;;;;;;;16.67;10.27;;;11.30;99.90;;;;;;5031108;28;20115;-80
2024/03/03 07:52:49;;;;;;;15.65;10.57;;;11.40;99.90;;;;;;5028050;28;20048;-79
2024/03/03 07:55:15;;;;;;;15.95;10.88;;;11.50;99.90;;;;;;5032849;28;20037;-80
2024/03/03 07:57:41;;;;;;;20.58;12.10;;;11.50;99.90;;;;;;5033827;28;20033;-80
2024/03/03 08:00:07;;;;;;;22.05;13.07;;;11.60;99.90;;;;;;5029976;28;20022;-80
2024/03/03 08:02:33;;;;;;;21.38;12.13;;;11.60;99.90;;;;;;5033714;28;20033;-80
2024/03/03 08:04:59;;;;;;;19.33;11.98;;;11.60;99.90;;;;;;5033240;28;20080;-80
2024/03/03 08:07:25;;;;;;;19.42;11.55;;;11.60;99.90;;;;;;5033321;28;20542;-80
2024/03/03 08:09:51;;;;;;;15.63;9.68;;;11.70;99.90;;;;;;5033757;28;20025;-79
2024/03/03 08:12:17;;;;;;;19.80;12.13;;;11.70;99.90;;;;;;5033631;28;20100;-80
2024/03/03 08:14:43;;;;;;;16.95;11.65;;;11.60;99.90;;;;;;5033445;28;20532;-79
2024/03/03 08:17:08;;;;;;;20.70;11.63;;;11.60;99.90;;;;;;5032761;28;20063;-79
2024/03/03 08:19:34;;;;;;;19.10;12.70;;;11.60;99.90;;;;;;5032501;28;20386;-80
2024/03/03 08:22:00;;;;;;;20.60;12.43;;;11.60;99.90;;;;;;5013202;28;20026;-80
2024/03/03 08:24:26;;;;;;;19.60;12.77;;;11.70;99.90;;;;;;5014891;28;20371;-80
2024/03/03 08:26:52;;;;;;;18.13;12.65;;;11.70;99.90;;;;;;5032666;28;20591;-80
2024/03/03 08:29:17;;;;;;;20.70;11.93;;;11.70;99.90;;;;;;5032728;28;20492;-81
2024/03/03 08:31:44;;;;;;;21.42;13.32;;;11.80;99.90;;;;;;5032896;28;20029;-80
2024/03/03 08:34:11;;;;;;;22.05;13.55;;;11.90;99.90;;;;;;5032424;28;20120;-79
2024/03/03 08:36:39;;;;;;;18.23;12.38;;;11.90;99.90;;;;;;5025204;28;20034;-81
2024/03/03 08:39:04;;;;;;;21.02;13.43;;;12.00;99.90;;;;;;5026932;28;20040;-81
2024/03/03 08:41:31;;;;;;;22.60;14.60;;;12.00;99.90;;;;;;5033412;28;20021;-81
2024/03/03 08:43:57;;;;;;;26.13;15.40;;;12.10;99.90;;;;;;5032351;28;20033;-80
2024/03/03 08:46:23;;;;;;;23.67;14.75;;;12.10;99.90;;;;;;5014955;28;20116;-83
2024/03/03 08:48:48;;;;;;;24.60;17.13;;;12.10;99.90;;;;;;5031988;28;20022;-82
2024/03/03 08:51:14;;;;;;;24.77;17.08;;;12.10;99.90;;;;;;5032350;28;20486;-83
2024/03/03 08:53:40;;;;;;;23.60;16.55;;;12.00;99.90;;;;;;5032970;28;20494;-81
2024/03/03 08:56:06;;;;;;;28.75;17.10;;;12.10;99.90;;;;;;5030617;28;20017;-81
2024/03/03 08:58:33;;;;;;;31.60;17.98;;;12.20;99.90;;;;;;5029289;28;20034;-81
2024/03/03 09:00:59;;;;;;;34.80;20.77;;;12.30;99.90;;;;;;5010998;28;20030;-79
2024/03/03 09:03:24;;;;;;;34.53;21.70;;;12.20;99.90;;;;;;5028703;28;20033;-81
2024/03/03 09:05:50;;;;;;;29.85;18.60;;;12.20;99.90;;;;;;5031213;28;20068;-80
2024/03/03 09:08:16;;;;;;;28.30;17.92;;;12.30;99.90;;;;;;5032906;28;20026;-79
2024/03/03 09:10:41;;;;;;;27.63;15.55;;;12.20;99.90;;;;;;5031996;28;20474;-79
2024/03/03 09:13:07;;;;;;;23.70;15.80;;;12.30;99.90;;;;;;5032865;28;20033;-79
2024/03/03 09:15:33;;;;;;;22.52;14.57;;;12.40;99.90;;;;;;5031418;28;20055;-80
2024/03/03 09:17:59;;;;;;;24.02;13.82;;;12.40;99.90;;;;;;5019282;28;20080;-82
2024/03/03 09:20:24;;;;;;;19.10;12.63;;;12.60;99.90;;;;;;5021379;28;20025;-80
2024/03/03 09:22:50;;;;;;;16.90;12.32;;;12.70;99.90;;;;;;5032048;28;20029;-80
2024/03/03 09:25:19;;;;;;;20.33;13.13;;;12.70;99.90;;;;;;5032574;28;20374;-80
2024/03/03 09:27:45;;;;;;;19.90;12.23;;;12.70;99.90;;;;;;5032037;28;20037;-81
2024/03/03 09:30:11;;;;;;;20.85;12.68;;;12.90;99.90;;;;;;5013746;28;20025;-81
2024/03/03 09:32:36;;;;;;;20.52;10.88;;;13.00;99.90;;;;;;5032532;28;20033;-80
2024/03/03 09:35:03;;;;;;;17.95;10.63;;;13.00;99.90;;;;;;5032102;28;20112;-80
2024/03/03 09:37:29;;;;;;;16.25;9.95;;;13.00;99.90;;;;;;5030577;28;20104;-80
2024/03/03 09:39:55;;;;;;;16.05;9.00;;;13.10;99.90;;;;;;5031810;28;20053;-80
2024/03/03 09:42:20;;;;;;;14.65;9.30;;;13.20;99.90;;;;;;5032302;28;20076;-74
2024/03/03 09:44:51;;;;;;;18.15;9.85;;;13.20;99.90;;;;;;5029168;28;20025;-75
2024/03/03 09:47:18;;;;;;;14.77;8.48;;;13.30;99.90;;;;;;5029639;28;20024;-73
2024/03/03 09:49:45;;;;;;;13.30;8.63;;;13.50;99.90;;;;;;5031960;28;20026;-78
2024/03/03 09:52:14;;;;;;;24.40;9.55;;;13.40;99.90;;;;;;5031980;28;20104;-78
2024/03/03 09:54:41;;;;;;;12.40;8.73;;;13.40;99.90;;;;;;5032032;28;20109;-77
2024/03/03 09:57:12;;;;;;;10.90;8.38;;;13.50;99.90;;;;;;5033829;28;20123;-74
2024/03/03 09:59:39;;;;;;;16.02;10.40;;;13.50;99.90;;;;;;5036179;28;20438;-75
2024/03/03 10:02:16;;;;;;;13.75;8.73;;;13.40;99.90;;;;;;5036482;28;20038;-75
2024/03/03 10:04:48;;;;;;;13.30;7.80;;;13.40;99.90;;;;;;5032146;28;20026;-80
2024/03/03 10:07:23;;;;;;;12.02;8.68;;;13.50;99.90;;;;;;5037723;28;20105;-79
2024/03/03 10:10:06;;;;;;;12.20;7.95;;;13.60;99.90;;;;;;5036049;28;20029;-74
2024/03/03 10:12:32;;;;;;;11.98;8.40;;;13.60;99.90;;;;;;5035180;28;20034;-76
2024/03/03 10:14:59;;;;;;;11.48;8.35;;;13.60;99.90;;;;;;5035733;28;20030;-78
2024/03/03 10:17:25;;;;;;;11.00;8.32;;;13.60;99.90;;;;;;5018420;28;20125;-74
2024/03/03 10:19:51;;;;;;;9.27;7.38;;;13.70;99.90;;;;;;5033741;28;20550;-76
2024/03/03 10:22:20;;;;;;;10.07;7.10;;;13.70;99.90;;;;;;5015999;28;20030;-77
2024/03/03 10:24:47;;;;;;;11.63;7.50;;;14.00;99.90;;;;;;5007978;28;20022;-77
2024/03/03 10:27:17;;;;;;;14.20;8.25;;;14.00;99.90;;;;;;5023429;28;20531;-77
2024/03/03 10:29:44;;;;;;;12.43;7.00;;;14.10;99.90;;;;;;5024338;28;20025;-75
2024/03/03 10:32:10;;;;;;;12.38;7.50;;;14.20;99.90;;;;;;5022975;28;20037;-74
2024/03/03 10:34:38;;;;;;;13.95;8.10;;;14.30;99.90;;;;;;5023576;28;20031;-74
2024/03/03 10:37:05;;;;;;;11.95;7.25;;;14.40;99.90;;;;;;5004745;28;20132;-80
2024/03/03 10:39:40;;;;;;;15.02;7.93;;;14.50;99.90;;;;;;5021503;28;20025;-76
2024/03/03 10:42:09;;;;;;;11.82;7.32;;;14.70;99.90;;;;;;5012471;28;20029;-74
2024/03/03 10:44:35;;;;;;;13.13;7.45;;;14.90;99.90;;;;;;5020406;28;20029;-79
2024/03/03 10:47:04;;;;;;;13.57;7.78;;;15.00;99.90;;;;;;5020151;28;20013;-76
2024/03/03 10:49:30;;;;;;;13.32;7.82;;;15.20;99.90;;;;;;5019982;28;20382;-75
2024/03/03 10:52:01;;;;;;;8.45;6.88;;;15.30;99.90;;;;;;5024652;28;20025;-76
2024/03/03 10:54:29;;;;;;;9.37;6.97;;;15.40;99.90;;;;;;5018827;28;20029;-74
2024/03/03 10:56:56;;;;;;;13.38;8.77;;;15.50;99.90;;;;;;5021395;28;20604;-77
2024/03/03 10:59:22;;;;;;;11.88;7.63;;;15.70;99.90;;;;;;5021816;28;20020;-78
2024/03/03 11:01:49;;;;;;;11.80;8.18;;;15.80;99.90;;;;;;5020854;28;20048;-74
2024/03/03 11:04:18;;;;;;;11.35;6.75;;;15.60;99.90;;;;;;5020418;28;20036;-76
2024/03/03 11:06:44;;;;;;;8.70;5.60;;;15.70;99.90;;;;;;5012350;28;20030;-78
2024/03/03 11:09:11;;;;;;;10.50;6.22;;;15.70;99.90;;;;;;5017281;28;20061;-74
2024/03/03 11:11:42;;;;;;;8.07;4.88;;;15.80;99.90;;;;;;5010447;28;20021;-76
2024/03/03 11:14:12;;;;;;;6.88;4.68;;;15.70;99.90;;;;;;5023659;28;20036;-80
2024/03/03 11:16:41;;;;;;;7.20;4.55;;;15.80;99.90;;;;;;5024475;28;20036;-78
2024/03/03 11:19:15;;;;;;;8.48;3.92;;;15.90;99.90;;;;;;5019353;28;20379;-77
2024/03/03 11:21:50;;;;;;;7.80;4.80;;;16.00;99.90;;;;;;5024427;28;20022;-75
2024/03/03 11:24:25;;;;;;;8.00;4.35;;;16.00;99.90;;;;;;5003379;28;20588;-79
2024/03/03 11:27:02;;;;;;;9.50;4.43;;;15.90;99.90;;;;;;5019198;28;20022;-77
2024/03/03 11:29:28;;;;;;;7.10;4.32;;;16.00;99.90;;;;;;5019183;28;20022;-77
2024/03/03 11:31:54;;;;;;;4.88;3.60;;;16.00;99.90;;;;;;5022008;28;20121;-76
2024/03/03 11:34:21;;;;;;;6.10;4.50;;;16.20;99.90;;;;;;5023871;28;20375;-78
2024/03/03 11:36:47;;;;;;;5.35;3.97;;;16.20;99.90;;;;;;5023491;28;20540;-76
2024/03/03 11:39:16;;;;;;;7.00;3.78;;;16.30;99.90;;;;;;5020257;28;20045;-75
2024/03/03 11:41:45;;;;;;;5.20;2.88;;;16.50;99.90;;;;;;5015726;28;20112;-74
2024/03/03 11:44:34;;;;;;;6.00;3.97;;;16.60;99.90;;;;;;5017841;28;20030;-75
2024/03/03 11:47:03;;;;;;;6.93;3.58;;;16.60;99.90;;;;;;5011736;28;20042;-74
2024/03/03 11:49:42;;;;;;;4.88;3.67;;;16.80;99.90;;;;;;5021037;28;20029;-73
2024/03/03 11:52:09;;;;;;;4.28;3.70;;;16.50;99.90;;;;;;5019607;28;20334;-76
2024/03/03 11:54:41;;;;;;;7.55;2.95;;;16.70;99.90;;;;;;5019431;28;20033;-76
2024/03/03 11:57:09;;;;;;;4.68;2.80;;;16.90;99.90;;;;;;5019287;28;20038;-73
2024/03/03 11:59:43;;;;;;;3.80;3.22;;;16.90;99.90;;;;;;5020048;28;20022;-79
2024/03/03 12:02:15;;;;;;;4.30;2.55;;;16.80;99.90;;;;;;5023313;28;20033;-75
2024/03/03 12:04:47;;;;;;;3.70;2.75;;;16.70;99.90;;;;;;5019849;28;20025;-80
2024/03/03 12:07:16;;;;;;;3.75;2.08;;;16.70;99.90;;;;;;5020829;28;20530;-82
2024/03/03 12:09:43;;;;;;;3.08;2.50;;;16.70;99.90;;;;;;5022840;28;20032;-78
2024/03/03 12:12:12;;;;;;;3.65;2.35;;;16.80;99.90;;;;;;5024307;28;20032;-81
2024/03/03 12:14:41;;;;;;;4.18;2.10;;;16.90;99.90;;;;;;5020093;28;20496;-83
2024/03/03 12:17:07;;;;;;;2.40;1.80;;;17.00;99.90;;;;;;5021081;28;20033;-79
2024/03/03 12:19:34;;;;;;;2.80;2.08;;;17.20;99.90;;;;;;5018274;28;20119;-76
2024/03/03 12:22:01;;;;;;;3.65;2.10;;;17.30;99.90;;;;;;5021752;28;20033;-77
2024/03/03 12:24:27;;;;;;;2.85;1.98;;;17.20;99.90;;;;;;5020035;28;20026;-77
2024/03/03 12:26:52;;;;;;;5.53;1.67;;;17.30;99.90;;;;;;5025042;28;20025;-73
2024/03/03 12:29:18;;;;;;;3.70;2.10;;;17.20;99.90;;;;;;5016776;28;20330;-74
2024/03/03 12:31:44;;;;;;;2.95;1.50;;;17.10;99.90;;;;;;5019092;28;20041;-78
2024/03/03 12:34:10;;;;;;;5.25;1.65;;;17.00;99.90;;;;;;5005072;28;20090;-74
2024/03/03 12:36:36;;;;;;;2.20;1.58;;;17.10;99.90;;;;;;5020728;28;20428;-78
2024/03/03 12:39:07;;;;;;;4.75;1.90;;;17.10;99.90;;;;;;5011645;28;20558;-80
2024/03/03 12:41:33;;;;;;;3.35;1.73;;;17.10;99.90;;;;;;5014890;28;20020;-75